createdAt,value
2022-10-18T00:01:23.205Z,16.66
2022-10-18T00:04:27.097Z,16.64
2022-10-18T00:07:31.447Z,16.60
2022-10-18T00:10:35.774Z,16.55
2022-10-18T00:13:40.089Z,16.55
2022-10-18T00:16:44.471Z,16.53
2022-10-18T00:19:50.426Z,16.51
2022-10-18T00:22:54.205Z,16.50
2022-10-18T00:26:04.121Z,16.49
2022-10-18T00:29:12.909Z,16.48
2022-10-18T00:32:16.750Z,16.46
2022-10-18T00:35:20.700Z,16.42
2022-10-18T00:38:24.727Z,16.40
2022-10-18T00:41:31.307Z,16.48
2022-10-18T00:44:34.959Z,16.55
2022-10-18T00:47:39.231Z,16.51
2022-10-18T00:50:43.642Z,16.47
2022-10-18T00:53:48.491Z,16.45
2022-10-18T00:56:52.546Z,16.45
2022-10-18T00:59:56.768Z,16.46
2022-10-18T01:03:00.580Z,16.46
2022-10-18T01:06:04.719Z,16.46
2022-10-18T01:09:28.490Z,16.46
2022-10-18T01:12:45.214Z,16.44
2022-10-18T01:16:02.814Z,16.46
2022-10-18T01:19:39.169Z,16.49
2022-10-18T01:22:59.681Z,16.52
2022-10-18T01:26:23.260Z,16.50
2022-10-18T01:29:53.743Z,16.53
2022-10-18T01:33:23.979Z,16.55
2022-10-18T01:36:35.774Z,16.54
2022-10-18T01:39:44.966Z,16.47
2022-10-18T01:42:50.126Z,16.44
2022-10-18T01:45:55.213Z,16.45
2022-10-18T01:48:59.566Z,16.46
2022-10-18T01:52:03.815Z,16.48
2022-10-18T01:55:08.131Z,16.50
2022-10-18T01:58:27.200Z,16.55
2022-10-18T02:01:36.891Z,16.58
2022-10-18T02:05:06.340Z,16.61
2022-10-18T02:08:23.989Z,16.62
2022-10-18T02:11:31.236Z,16.65
2022-10-18T02:14:35.775Z,16.67
2022-10-18T02:17:40.908Z,16.68
2022-10-18T02:20:45.653Z,16.66
2022-10-18T02:23:50.084Z,16.67
2022-10-18T02:26:53.789Z,16.67
2022-10-18T02:29:58.661Z,16.64
2022-10-18T02:33:11.193Z,16.66
2022-10-18T02:36:22.146Z,16.69
2022-10-18T02:39:30.514Z,16.66
2022-10-18T02:42:39.826Z,16.67
2022-10-18T02:45:44.187Z,16.66
2022-10-18T02:48:47.971Z,16.63
2022-10-18T02:51:51.597Z,16.63
2022-10-18T02:54:55.285Z,16.64
2022-10-18T02:57:59.049Z,16.67
2022-10-18T03:01:02.884Z,16.67
2022-10-18T03:04:06.988Z,16.70
2022-10-18T03:07:10.882Z,16.72
2022-10-18T03:10:14.946Z,16.75
2022-10-18T03:13:19.087Z,16.69
2022-10-18T03:16:23.169Z,16.70
2022-10-18T03:19:27.273Z,16.70
2022-10-18T03:22:31.579Z,16.71
2022-10-18T03:25:35.314Z,16.72
2022-10-18T03:28:39.059Z,16.71
2022-10-18T03:31:43.272Z,16.73
2022-10-18T03:34:47.425Z,16.72
2022-10-18T03:37:51.355Z,16.75
2022-10-18T03:40:55.346Z,16.73
2022-10-18T03:43:59.326Z,16.72
2022-10-18T03:47:03.433Z,16.69
2022-10-18T03:50:07.600Z,16.71
2022-10-18T03:53:11.691Z,16.70
2022-10-18T03:56:15.940Z,16.69
2022-10-18T03:59:19.911Z,16.72
2022-10-18T04:02:24.438Z,16.76
2022-10-18T04:05:30.781Z,16.78
2022-10-18T04:08:35.007Z,16.80
2022-10-18T04:11:38.997Z,16.80
2022-10-18T04:14:42.712Z,16.76
2022-10-18T04:17:46.961Z,16.72
2022-10-18T04:20:50.954Z,16.72
2022-10-18T04:23:54.904Z,16.73
2022-10-18T04:26:58.690Z,16.79
2022-10-18T04:30:02.705Z,16.80
2022-10-18T04:33:06.420Z,16.84
2022-10-18T04:36:10.244Z,16.85
2022-10-18T04:39:14.292Z,16.85
2022-10-18T04:42:18.339Z,16.87
2022-10-18T04:45:22.120Z,16.84
2022-10-18T04:48:26.392Z,16.84
2022-10-18T04:51:30.703Z,16.86
2022-10-18T04:54:34.952Z,16.84
2022-10-18T04:57:38.776Z,16.84
2022-10-18T05:00:43.436Z,16.86
2022-10-18T05:03:52.295Z,16.88
2022-10-18T05:06:56.327Z,16.88
2022-10-18T05:10:00.172Z,16.91
2022-10-18T05:13:03.878Z,16.90
2022-10-18T05:16:07.918Z,16.88
2022-10-18T05:19:11.655Z,16.88
2022-10-18T05:22:15.763Z,16.88
2022-10-18T05:25:19.579Z,16.88
2022-10-18T05:28:41.063Z,16.88
2022-10-18T05:31:45.455Z,16.91
2022-10-18T05:34:49.257Z,16.89
2022-10-18T05:37:53.555Z,16.88
2022-10-18T05:40:57.715Z,16.86
2022-10-18T05:44:05.718Z,16.88
2022-10-18T05:47:09.540Z,16.81
2022-10-18T05:50:14.498Z,16.72
2022-10-18T05:53:35.812Z,16.73
2022-10-18T05:56:41.387Z,16.72
2022-10-18T05:59:45.332Z,16.72
2022-10-18T06:02:49.351Z,16.71
2022-10-18T06:05:54.212Z,16.68
2022-10-18T06:08:58.592Z,16.69
2022-10-18T06:12:02.688Z,16.76
2022-10-18T06:15:07.316Z,16.81
2022-10-18T06:18:11.080Z,16.81
2022-10-18T06:21:16.463Z,16.80
2022-10-18T06:24:21.758Z,16.79
2022-10-18T06:27:25.603Z,16.80
2022-10-18T06:30:29.497Z,16.82
2022-10-18T06:33:35.197Z,16.82
2022-10-18T06:36:39.031Z,16.85
2022-10-18T06:39:42.863Z,16.85
2022-10-18T06:42:55.279Z,16.86
2022-10-18T06:46:10.232Z,16.91
2022-10-18T06:49:18.325Z,16.97
2022-10-18T06:52:25.620Z,16.94
2022-10-18T06:55:30.714Z,16.92
2022-10-18T06:58:35.461Z,16.88
2022-10-18T07:01:39.874Z,16.91
2022-10-18T07:04:44.054Z,16.89
2022-10-18T07:07:50.626Z,16.90
2022-10-18T07:10:55.587Z,16.88
2022-10-18T07:14:03.023Z,16.76
2022-10-18T07:17:07.700Z,16.76
2022-10-18T07:20:12.291Z,16.74
2022-10-18T07:23:15.915Z,16.73
2022-10-18T07:26:27.077Z,16.72
2022-10-18T07:29:31.621Z,16.73
2022-10-18T07:32:35.363Z,16.72
2022-10-18T07:35:39.421Z,16.67
2022-10-18T07:38:44.603Z,16.70
2022-10-18T07:41:48.614Z,16.73
2022-10-18T07:44:52.475Z,16.69
2022-10-18T07:47:56.855Z,16.71
2022-10-18T07:51:01.409Z,16.62
2022-10-18T07:54:05.597Z,16.49
2022-10-18T07:57:09.964Z,16.30
2022-10-18T08:00:14.349Z,16.22
2022-10-18T08:03:19.049Z,16.23
2022-10-18T08:06:23.772Z,16.24
2022-10-18T08:09:28.247Z,16.21
2022-10-18T08:12:32.933Z,16.18
2022-10-18T08:15:36.686Z,16.15
2022-10-18T08:18:41.466Z,15.95
2022-10-18T08:21:45.313Z,15.91
2022-10-18T08:24:49.715Z,15.92
2022-10-18T08:27:53.642Z,15.93
2022-10-18T08:31:01.992Z,15.94
2022-10-18T08:34:05.971Z,15.97
2022-10-18T08:37:10.120Z,16.00
2022-10-18T08:40:14.793Z,16.04
2022-10-18T08:43:37.466Z,15.94
2022-10-18T08:46:46.064Z,15.93
2022-10-18T08:49:57.933Z,15.85
2022-10-18T08:53:13.892Z,15.80
2022-10-18T08:56:24.139Z,15.75
2022-10-18T08:59:40.583Z,15.74
2022-10-18T09:02:59.035Z,15.75
2022-10-18T09:06:17.677Z,15.70
2022-10-18T09:09:35.453Z,15.71
2022-10-18T09:12:54.936Z,15.76
2022-10-18T09:16:02.463Z,15.77
2022-10-18T09:19:37.312Z,15.79
2022-10-18T09:23:01.969Z,15.88
2022-10-18T09:26:17.286Z,15.91
2022-10-18T09:29:40.853Z,15.91
2022-10-18T09:32:49.787Z,15.89
2022-10-18T09:36:00.342Z,15.92
2022-10-18T09:39:08.790Z,15.98
2022-10-18T09:42:34.946Z,16.01
2022-10-18T09:45:45.505Z,16.04
2022-10-18T09:48:55.999Z,16.06
2022-10-18T09:52:08.914Z,16.05
2022-10-18T09:55:15.786Z,16.09
2022-10-18T09:58:22.742Z,16.23
2022-10-18T10:01:30.357Z,16.36
2022-10-18T10:04:34.253Z,16.43
2022-10-18T10:07:44.465Z,16.45
2022-10-18T10:10:48.589Z,16.51
2022-10-18T10:13:57.505Z,16.51
2022-10-18T10:17:05.763Z,16.51
2022-10-18T10:20:21.200Z,16.53
2022-10-18T10:23:26.509Z,16.56
2022-10-18T10:26:34.792Z,16.57
2022-10-18T10:29:49.543Z,16.59
2022-10-18T10:32:54.829Z,16.63
2022-10-18T10:36:00.682Z,16.70
2022-10-18T10:39:04.590Z,16.80
2022-10-18T10:42:13.365Z,16.81
2022-10-18T10:45:17.654Z,16.80
2022-10-18T10:48:22.547Z,16.82
2022-10-18T10:51:33.356Z,16.83
2022-10-18T10:54:39.839Z,16.80
2022-10-18T10:57:47.152Z,16.86
2022-10-18T11:00:51.276Z,16.92
2022-10-18T11:03:58.454Z,16.98
2022-10-18T11:07:27.385Z,16.89
2022-10-18T11:10:38.344Z,16.88
2022-10-18T11:13:53.422Z,16.93
2022-10-18T11:17:16.320Z,16.88
2022-10-18T11:20:43.135Z,16.91
2022-10-18T11:23:47.279Z,16.95
2022-10-18T11:27:02.644Z,17.02
2022-10-18T11:30:37.613Z,17.05
2022-10-18T11:34:15.396Z,16.98
2022-10-18T11:37:44.831Z,16.94
2022-10-18T11:40:54.939Z,16.93
2022-10-18T11:44:04.413Z,16.97
2022-10-18T11:47:43.827Z,16.99
2022-10-18T11:51:04.322Z,17.06
2022-10-18T11:54:11.421Z,16.95
2022-10-18T11:57:31.561Z,16.89
2022-10-18T12:00:50.861Z,16.83
2022-10-18T12:04:14.043Z,16.78
2022-10-18T12:07:26.817Z,16.81
2022-10-18T12:10:45.806Z,16.74
2022-10-18T12:14:02.022Z,16.67
2022-10-18T12:17:41.695Z,16.62
2022-10-18T12:20:49.564Z,16.61
2022-10-18T12:23:54.024Z,16.64
2022-10-18T12:27:01.896Z,16.68
2022-10-18T12:30:24.340Z,16.72
2022-10-18T12:33:34.211Z,16.76
2022-10-18T12:40:20.509Z,16.79
2022-10-18T12:43:32.445Z,16.74
2022-10-18T12:46:43.946Z,16.74
2022-10-18T12:49:57.695Z,16.82
2022-10-18T12:53:29.658Z,16.88
2022-10-18T12:56:42.493Z,16.93
2022-10-18T12:59:46.657Z,17.02
2022-10-18T13:03:13.105Z,17.12
2022-10-18T13:06:17.002Z,17.19
2022-10-18T13:09:21.779Z,17.29
2022-10-18T13:12:28.775Z,17.36
2022-10-18T13:15:42.991Z,17.43
2022-10-18T13:18:57.162Z,17.47
2022-10-18T13:22:37.907Z,17.47
2022-10-18T13:26:01.764Z,17.49
2022-10-18T13:29:30.092Z,17.41
2022-10-18T13:32:58.137Z,17.38
2022-10-18T13:36:06.429Z,17.31
2022-10-18T13:39:20.027Z,17.26
2022-10-18T13:42:33.052Z,17.26
2022-10-18T13:45:44.041Z,17.24
2022-10-18T13:49:20.071Z,17.14
2022-10-18T13:52:27.291Z,17.18
2022-10-18T13:56:10.052Z,17.19
2022-10-18T13:59:44.088Z,17.25
2022-10-18T14:03:37.594Z,17.30
2022-10-18T14:06:43.481Z,17.30
2022-10-18T14:09:57.591Z,17.36
2022-10-18T14:13:04.206Z,17.44
2022-10-18T14:16:34.829Z,17.52
2022-10-18T14:19:42.421Z,17.50
2022-10-18T14:23:16.252Z,17.44
2022-10-18T14:26:20.796Z,17.39
2022-10-18T14:29:24.968Z,17.32
2022-10-18T14:32:31.687Z,17.26
2022-10-18T14:35:35.696Z,17.20
2022-10-18T14:38:57.321Z,17.15
2022-10-18T14:42:02.255Z,17.20
2022-10-18T14:45:19.456Z,17.27
2022-10-18T14:48:23.927Z,17.23
2022-10-18T14:51:32.859Z,17.16
2022-10-18T14:54:38.064Z,17.02
2022-10-18T14:57:42.067Z,17.06
2022-10-18T15:00:48.551Z,17.07
2022-10-18T15:03:59.618Z,17.08
2022-10-18T15:07:06.400Z,17.05
2022-10-18T15:10:18.843Z,17.02
2022-10-18T15:13:25.016Z,16.97
2022-10-18T15:16:31.889Z,16.93
2022-10-18T15:19:42.946Z,16.90
2022-10-18T15:22:47.628Z,16.89
2022-10-18T15:25:59.496Z,16.90
2022-10-18T15:29:06.205Z,16.88
2022-10-18T15:32:31.899Z,16.86
2022-10-18T15:35:38.432Z,16.86
2022-10-18T15:38:46.222Z,16.85
2022-10-18T15:42:02.739Z,16.85
2022-10-18T15:45:25.035Z,16.82
2022-10-18T15:48:40.325Z,16.76
2022-10-18T15:51:49.394Z,16.75
2022-10-18T15:54:53.409Z,16.73
2022-10-18T15:58:15.927Z,16.67
2022-10-18T16:01:22.490Z,16.64
2022-10-18T16:04:32.353Z,16.60
2022-10-18T16:07:36.263Z,16.57
2022-10-18T16:10:40.106Z,16.55
2022-10-18T16:13:44.436Z,16.50
2022-10-18T16:16:52.624Z,16.40
2022-10-18T16:19:56.605Z,16.33
2022-10-18T16:23:00.495Z,16.26
2022-10-18T16:26:05.057Z,16.19
2022-10-18T16:29:15.776Z,16.17
2022-10-18T16:32:19.608Z,16.13
2022-10-18T16:35:23.543Z,16.11
2022-10-18T16:38:35.206Z,16.09
2022-10-18T16:41:39.504Z,16.06
2022-10-18T16:44:43.283Z,16.03
2022-10-18T16:47:47.420Z,16.05
2022-10-18T16:50:53.602Z,16.07
2022-10-18T16:53:58.126Z,16.07
2022-10-18T16:57:02.529Z,16.08
2022-10-18T17:00:07.032Z,16.09
2022-10-18T17:03:11.043Z,16.08
2022-10-18T17:06:17.603Z,16.02
2022-10-18T17:09:21.478Z,15.95
2022-10-18T17:12:25.523Z,15.90
2022-10-18T17:15:32.873Z,15.87
2022-10-18T17:18:39.055Z,15.83
2022-10-18T17:21:42.820Z,15.81
2022-10-18T17:24:46.987Z,15.83
2022-10-18T17:27:50.950Z,15.86
2022-10-18T17:30:54.779Z,15.89
2022-10-18T17:34:01.336Z,15.92
2022-10-18T17:37:05.890Z,15.96
2022-10-18T17:40:10.222Z,15.99
2022-10-18T17:43:14.432Z,16.02
2022-10-18T17:46:19.574Z,16.02
2022-10-18T17:49:23.608Z,16.04
2022-10-18T17:52:27.900Z,16.03
2022-10-18T17:55:34.214Z,16.00
2022-10-18T17:58:38.282Z,15.92
2022-10-18T18:01:44.217Z,15.87
2022-10-18T18:04:48.521Z,15.87
2022-10-18T18:07:52.990Z,15.86
2022-10-18T18:10:56.786Z,15.85
2022-10-18T18:14:00.791Z,15.83
2022-10-18T18:17:05.071Z,15.77
2022-10-18T18:20:09.780Z,15.73
2022-10-18T18:23:14.445Z,15.71
2022-10-18T18:26:19.459Z,15.70
2022-10-18T18:29:25.094Z,15.68
2022-10-18T18:32:31.059Z,15.66
2022-10-18T18:35:35.807Z,15.65
2022-10-18T18:38:45.117Z,15.59
2022-10-18T18:41:51.381Z,15.54
2022-10-18T18:44:55.345Z,15.46
2022-10-18T18:48:01.949Z,15.41
2022-10-18T18:51:11.106Z,15.37
2022-10-18T18:54:15.962Z,15.31
2022-10-18T18:57:20.070Z,15.27
2022-10-18T19:00:24.273Z,15.23
2022-10-18T19:03:28.447Z,15.25
2022-10-18T19:06:47.389Z,15.19
2022-10-18T19:09:52.075Z,15.15
2022-10-18T19:12:56.676Z,15.10
2022-10-18T19:16:34.319Z,15.08
2022-10-18T19:19:40.735Z,15.06
2022-10-18T19:22:45.590Z,15.01
2022-10-18T19:25:49.420Z,14.98
2022-10-18T19:28:53.675Z,14.95
2022-10-18T19:32:00.256Z,14.93
2022-10-18T19:35:04.250Z,14.86
2022-10-18T19:38:08.135Z,14.85
2022-10-18T19:41:12.373Z,14.80
2022-10-18T19:44:18.535Z,14.83
2022-10-18T19:47:22.666Z,14.81
2022-10-18T19:53:35.796Z,14.81
2022-10-18T19:56:43.251Z,14.74
2022-10-18T19:59:47.130Z,14.73
2022-10-18T20:02:50.825Z,14.69
2022-10-18T20:05:58.964Z,14.72
2022-10-18T20:09:04.397Z,14.64
2022-10-18T20:12:08.248Z,14.60
2022-10-18T20:15:12.711Z,14.55
2022-10-18T20:18:18.583Z,14.49
2022-10-18T20:21:22.302Z,14.45
2022-10-18T20:24:26.350Z,14.41
2022-10-18T20:27:31.894Z,14.43
2022-10-18T20:30:36.549Z,14.40
2022-10-18T20:33:41.189Z,14.41
2022-10-18T20:36:45.393Z,14.39
2022-10-18T20:39:49.608Z,14.36
2022-10-18T20:42:53.865Z,14.35
2022-10-18T20:45:59.089Z,14.37
2022-10-18T20:49:05.158Z,14.38
2022-10-18T20:52:09.132Z,14.37
2022-10-18T20:55:13.266Z,14.33
2022-10-18T20:58:17.307Z,14.30
2022-10-18T21:01:24.214Z,14.29
2022-10-18T21:04:28.281Z,14.29
2022-10-18T21:07:32.426Z,14.27
2022-10-18T21:10:36.712Z,14.22
2022-10-18T21:13:43.485Z,14.20
2022-10-18T21:16:48.455Z,14.15
2022-10-18T21:19:53.567Z,14.12
2022-10-18T21:22:57.578Z,14.09
2022-10-18T21:26:01.569Z,14.04
2022-10-18T21:29:06.143Z,14.01
2022-10-18T21:32:10.287Z,13.96
2022-10-18T21:35:14.140Z,13.91
2022-10-18T21:38:18.309Z,13.90
2022-10-18T21:41:22.572Z,13.89
2022-10-18T21:44:26.740Z,13.86
2022-10-18T21:47:31.054Z,13.77
2022-10-18T21:50:35.077Z,13.74
2022-10-18T21:53:38.949Z,13.68
2022-10-18T21:56:43.625Z,13.67
2022-10-18T21:59:47.279Z,13.59
2022-10-18T22:03:08.415Z,13.48
2022-10-18T22:06:15.193Z,13.45
2022-10-18T22:09:21.177Z,13.37
2022-10-18T22:12:25.128Z,13.31
2022-10-18T22:15:29.183Z,13.30
2022-10-18T22:18:33.921Z,13.24
2022-10-18T22:21:37.844Z,13.18
2022-10-18T22:24:41.734Z,13.14
2022-10-18T22:27:45.602Z,13.10
2022-10-18T22:30:49.837Z,13.02
2022-10-18T22:33:55.923Z,12.95
2022-10-18T22:36:59.931Z,12.87
2022-10-18T22:40:04.265Z,12.87
2022-10-18T22:43:08.096Z,12.86
2022-10-18T22:46:13.254Z,12.86
2022-10-18T22:49:17.103Z,12.83
2022-10-18T22:52:21.268Z,12.75
2022-10-18T22:55:25.297Z,12.71
2022-10-18T22:58:31.618Z,12.63
2022-10-18T23:01:37.785Z,12.61
2022-10-18T23:04:41.925Z,12.56
2022-10-18T23:07:49.398Z,12.60
2022-10-18T23:10:55.570Z,12.56
2022-10-18T23:13:59.576Z,12.53
2022-10-18T23:17:03.626Z,12.48
2022-10-18T23:20:07.988Z,12.41
2022-10-18T23:23:13.004Z,12.37
2022-10-18T23:26:20.300Z,12.30
2022-10-18T23:29:24.544Z,12.27
2022-10-18T23:32:28.729Z,12.20
2022-10-18T23:35:32.633Z,12.14
2022-10-18T23:38:38.443Z,12.11
2022-10-18T23:41:43.884Z,12.08
2022-10-18T23:44:48.191Z,12.09
2022-10-18T23:47:51.998Z,12.11
2022-10-18T23:50:56.259Z,12.10
2022-10-18T23:54:02.573Z,12.06
2022-10-18T23:57:06.588Z,12.03
